TimeCST,TemperatureF,Dew PointF,Humidity,Sea Level PressureIn,VisibilityMPH,Wind Direction,Wind SpeedMPH,Gust SpeedMPH,PrecipitationIn,Events,Conditions,WindDirDegrees,DateUTC
12:56 AM,39.0,25.0,57,30.14,10.0,North,13.8,19.6,N/A,,Overcast,350,2013-03-03 06:56:00
1:56 AM,37.9,25.0,60,30.13,10.0,NNW,9.2,-,N/A,,Overcast,340,2013-03-03 07:56:00
2:56 AM,37.9,26.1,62,30.13,10.0,NNW,9.2,18.4,N/A,,Overcast,340,2013-03-03 08:56:00
3:54 AM,37.4,26.6,65,30.12,10.0,NNW,9.2,-,N/A,,Overcast,330,2013-03-03 09:54:00
3:56 AM,37.0,26.1,65,30.12,10.0,NNW,10.4,-,N/A,,Overcast,340,2013-03-03 09:56:00
4:05 AM,37.4,24.8,60,30.12,10.0,NNW,11.5,-,N/A,,Overcast,340,2013-03-03 10:05:00
4:14 AM,37.4,26.6,65,30.12,10.0,North,9.2,18.4,N/A,,Overcast,350,2013-03-03 10:14:00
4:28 AM,37.4,24.8,60,30.12,10.0,North,9.2,-,N/A,,Overcast,350,2013-03-03 10:28:00
4:56 AM,37.0,25.0,62,30.13,10.0,North,11.5,-,N/A,,Overcast,360,2013-03-03 10:56:00
5:56 AM,36.0,25.0,64,30.14,10.0,NNW,8.1,-,N/A,,Overcast,340,2013-03-03 11:56:00
6:18 AM,35.6,24.8,65,30.15,10.0,NNW,10.4,-,N/A,,Overcast,340,2013-03-03 12:18:00
6:56 AM,36.0,25.0,64,30.16,10.0,NNW,9.2,-,N/A,,Overcast,340,2013-03-03 12:56:00
7:56 AM,37.9,24.1,57,30.18,10.0,NW,13.8,-,N/A,,Overcast,320,2013-03-03 13:56:00
8:29 AM,39.2,24.8,56,30.18,10.0,North,11.5,-,N/A,,Scattered Clouds,360,2013-03-03 14:29:00
8:37 AM,39.2,24.8,56,30.18,10.0,North,8.1,16.1,N/A,,Mostly Cloudy,360,2013-03-03 14:37:00
8:56 AM,39.9,23.0,51,30.18,10.0,NNW,13.8,21.9,N/A,,Mostly Cloudy,330,2013-03-03 14:56:00
9:56 AM,41.0,21.0,45,30.19,10.0,NNW,13.8,20.7,N/A,,Mostly Cloudy,340,2013-03-03 15:56:00
10:56 AM,44.1,21.0,40,30.17,10.0,NNW,11.5,19.6,N/A,,Partly Cloudy,340,2013-03-03 16:56:00
11:56 AM,46.0,19.9,35,30.15,10.0,NW,9.2,19.6,N/A,,Clear,320,2013-03-03 17:56:00
12:56 PM,48.9,19.9,32,30.12,10.0,North,11.5,19.6,N/A,,Clear,350,2013-03-03 18:56:00
1:56 PM,51.1,18.0,27,30.10,10.0,North,12.7,18.4,N/A,,Clear,10,2013-03-03 19:56:00
2:56 PM,51.1,17.1,26,30.09,10.0,North,11.5,20.7,N/A,,Clear,350,2013-03-03 20:56:00
3:56 PM,52.0,19.0,27,30.10,10.0,NNW,13.8,20.7,N/A,,Clear,340,2013-03-03 21:56:00
4:56 PM,50.0,17.1,27,30.12,10.0,NNW,11.5,-,N/A,,Clear,340,2013-03-03 22:56:00
5:56 PM,46.0,19.9,35,30.13,10.0,North,5.8,-,N/A,,Clear,360,2013-03-03 23:56:00
6:56 PM,43.0,21.0,42,30.15,10.0,NNW,4.6,-,N/A,,Clear,340,2013-03-04 00:56:00
7:56 PM,39.9,24.1,53,30.16,10.0,Calm,Calm,-,N/A,,Clear,0,2013-03-04 01:56:00
8:56 PM,37.9,26.1,62,30.17,10.0,Calm,Calm,-,N/A,,Clear,0,2013-03-04 02:56:00
9:56 PM,36.0,25.0,64,30.17,10.0,Calm,Calm,-,N/A,,Clear,0,2013-03-04 03:56:00
10:56 PM,35.1,26.1,70,30.17,10.0,Calm,Calm,-,N/A,,Clear,0,2013-03-04 04:56:00
11:56 PM,33.1,26.1,75,30.15,10.0,Calm,Calm,-,N/A,,Clear,0,2013-03-04 05:56:00